sensor_id;sensor_type;location;lat;lon;timestamp;pressure;altitude;pressure_sealevel;temperature;humidity
76808;BME280;65758;45.458;11.062;2024-03-08T00:01:52;101081.00;;;10.62;64.84
76808;BME280;65758;45.458;11.062;2024-03-08T00:08:33;101081.71;;;10.56;64.69
76808;BME280;65758;45.458;11.062;2024-03-08T00:11:00;101080.82;;;10.54;64.84
76808;BME280;65758;45.458;11.062;2024-03-08T00:13:27;101079.03;;;10.53;64.84
76808;BME280;65758;45.458;11.062;2024-03-08T00:15:54;101080.48;;;10.50;64.64
76808;BME280;65758;45.458;11.062;2024-03-08T00:18:24;101079.19;;;10.45;65.20
76808;BME280;65758;45.458;11.062;2024-03-08T00:25:10;101071.65;;;10.37;64.65
76808;BME280;65758;45.458;11.062;2024-03-08T00:31:45;101068.06;;;10.32;65.63
76808;BME280;65758;45.458;11.062;2024-03-08T00:34:12;101069.47;;;10.28;65.70
76808;BME280;65758;45.458;11.062;2024-03-08T00:40:58;101065.41;;;10.21;65.87
76808;BME280;65758;45.458;11.062;2024-03-08T00:43:25;101063.16;;;10.18;65.94
76808;BME280;65758;45.458;11.062;2024-03-08T00:45:52;101063.79;;;10.14;65.94
76808;BME280;65758;45.458;11.062;2024-03-08T00:52:46;101063.46;;;10.06;66.34
76808;BME280;65758;45.458;11.062;2024-03-08T00:55:13;101062.45;;;10.05;66.26
76808;BME280;65758;45.458;11.062;2024-03-08T00:57:40;101063.64;;;10.06;66.26
76808;BME280;65758;45.458;11.062;2024-03-08T01:00:08;101065.44;;;10.06;66.28
76808;BME280;65758;45.458;11.062;2024-03-08T01:02:39;101067.67;;;10.07;66.42
76808;BME280;65758;45.458;11.062;2024-03-08T01:09:27;101058.92;;;10.07;66.52
76808;BME280;65758;45.458;11.062;2024-03-08T01:11:54;101056.68;;;10.06;66.44
76808;BME280;65758;45.458;11.062;2024-03-08T01:18:43;101049.48;;;10.09;66.44
76808;BME280;65758;45.458;11.062;2024-03-08T01:21:10;101048.09;;;10.10;66.23
76808;BME280;65758;45.458;11.062;2024-03-08T01:27:58;101044.69;;;10.08;66.06
76808;BME280;65758;45.458;11.062;2024-03-08T01:30:25;101042.98;;;10.06;65.99
76808;BME280;65758;45.458;11.062;2024-03-08T01:37:12;101028.34;;;10.04;66.09
76808;BME280;65758;45.458;11.062;2024-03-08T01:39:41;101024.40;;;10.02;65.74
76808;BME280;65758;45.458;11.062;2024-03-08T01:46:34;101020.31;;;10.02;65.64
76808;BME280;65758;45.458;11.062;2024-03-08T01:49:01;101013.55;;;10.01;65.98
76808;BME280;65758;45.458;11.062;2024-03-08T01:51:29;101017.89;;;10.00;65.90
76808;BME280;65758;45.458;11.062;2024-03-08T01:54:00;101022.92;;;10.01;65.73
76808;BME280;65758;45.458;11.062;2024-03-08T01:56:28;101018.47;;;10.02;65.49
76808;BME280;65758;45.458;11.062;2024-03-08T01:58:59;101017.67;;;10.03;65.74
76808;BME280;65758;45.458;11.062;2024-03-08T02:01:27;101017.96;;;10.03;65.63
76808;BME280;65758;45.458;11.062;2024-03-08T02:03:55;101016.23;;;10.05;65.55
76808;BME280;65758;45.458;11.062;2024-03-08T02:06:22;101012.86;;;10.07;65.33
76808;BME280;65758;45.458;11.062;2024-03-08T02:08:49;101009.58;;;10.07;65.49
76808;BME280;65758;45.458;11.062;2024-03-08T02:11:16;101008.52;;;10.09;65.75
76808;BME280;65758;45.458;11.062;2024-03-08T02:13:44;101006.03;;;10.11;65.36
76808;BME280;65758;45.458;11.062;2024-03-08T02:16:11;101008.85;;;10.11;65.16
76808;BME280;65758;45.458;11.062;2024-03-08T02:18:38;101006.07;;;10.09;64.90
76808;BME280;65758;45.458;11.062;2024-03-08T02:21:06;101007.63;;;10.09;65.03
76808;BME280;65758;45.458;11.062;2024-03-08T02:23:36;101005.15;;;10.10;65.54
76808;BME280;65758;45.458;11.062;2024-03-08T02:30:17;101012.05;;;10.10;65.20
76808;BME280;65758;45.458;11.062;2024-03-08T02:32:45;101010.83;;;10.09;65.36
76808;BME280;65758;45.458;11.062;2024-03-08T02:35:12;101007.80;;;10.11;65.69
76808;BME280;65758;45.458;11.062;2024-03-08T02:37:38;101010.13;;;10.13;65.52
76808;BME280;65758;45.458;11.062;2024-03-08T02:40:05;101010.47;;;10.14;65.48
76808;BME280;65758;45.458;11.062;2024-03-08T02:42:34;101012.21;;;10.10;65.29
76808;BME280;65758;45.458;11.062;2024-03-08T02:45:00;101010.12;;;10.07;65.22
76808;BME280;65758;45.458;11.062;2024-03-08T02:47:27;101009.01;;;10.02;65.12
76808;BME280;65758;45.458;11.062;2024-03-08T02:54:11;101011.33;;;9.98;65.41
76808;BME280;65758;45.458;11.062;2024-03-08T02:56:38;101014.96;;;9.96;65.66
76808;BME280;65758;45.458;11.062;2024-03-08T02:59:05;101016.85;;;9.94;65.65
76808;BME280;65758;45.458;11.062;2024-03-08T03:01:33;101014.48;;;9.93;65.84
76808;BME280;65758;45.458;11.062;2024-03-08T03:04:00;101010.95;;;9.88;65.83
76808;BME280;65758;45.458;11.062;2024-03-08T03:06:27;101010.52;;;9.81;65.97
76808;BME280;65758;45.458;11.062;2024-03-08T03:13:20;100996.25;;;9.68;65.90
76808;BME280;65758;45.458;11.062;2024-03-08T03:15:47;100991.54;;;9.61;66.13
76808;BME280;65758;45.458;11.062;2024-03-08T03:18:14;100995.77;;;9.59;66.05
76808;BME280;65758;45.458;11.062;2024-03-08T03:20:42;100998.14;;;9.55;65.79
76808;BME280;65758;45.458;11.062;2024-03-08T03:23:10;101000.42;;;9.51;65.96
76808;BME280;65758;45.458;11.062;2024-03-08T03:25:41;101000.29;;;9.47;66.08
76808;BME280;65758;45.458;11.062;2024-03-08T03:32:22;101001.70;;;9.36;66.39
76808;BME280;65758;45.458;11.062;2024-03-08T03:34:50;100996.34;;;9.32;66.38
76808;BME280;65758;45.458;11.062;2024-03-08T03:41:33;100996.77;;;9.25;66.63
76808;BME280;65758;45.458;11.062;2024-03-08T03:44:01;100988.74;;;9.25;66.70
76808;BME280;65758;45.458;11.062;2024-03-08T03:46:27;100993.33;;;9.24;66.69
76808;BME280;65758;45.458;11.062;2024-03-08T03:53:15;100996.86;;;9.19;66.39
76808;BME280;65758;45.458;11.062;2024-03-08T03:59:56;100993.16;;;9.17;66.15
76808;BME280;65758;45.458;11.062;2024-03-08T04:02:26;100992.52;;;9.16;66.10
76808;BME280;65758;45.458;11.062;2024-03-08T04:04:53;100990.76;;;9.16;66.12
76808;BME280;65758;45.458;11.062;2024-03-08T04:07:21;100990.45;;;9.13;66.02
76808;BME280;65758;45.458;11.062;2024-03-08T04:09:48;100984.78;;;9.12;66.13
76808;BME280;65758;45.458;11.062;2024-03-08T04:12:14;100981.95;;;9.12;66.08
76808;BME280;65758;45.458;11.062;2024-03-08T04:18:57;100990.23;;;9.10;65.79
76808;BME280;65758;45.458;11.062;2024-03-08T04:21:24;100982.13;;;9.09;65.48
76808;BME280;65758;45.458;11.062;2024-03-08T04:23:51;100981.91;;;9.08;65.84
76808;BME280;65758;45.458;11.062;2024-03-08T04:26:18;100984.15;;;9.08;65.68
76808;BME280;65758;45.458;11.062;2024-03-08T04:33:00;100980.76;;;9.04;65.85
76808;BME280;65758;45.458;11.062;2024-03-08T04:35:27;100975.95;;;9.03;65.92
76808;BME280;65758;45.458;11.062;2024-03-08T04:37:54;100976.05;;;9.04;65.92
76808;BME280;65758;45.458;11.062;2024-03-08T04:40:21;100976.55;;;9.04;65.91
76808;BME280;65758;45.458;11.062;2024-03-08T04:42:48;100979.95;;;9.04;65.79
76808;BME280;65758;45.458;11.062;2024-03-08T04:45:17;100980.28;;;9.02;65.73
76808;BME280;65758;45.458;11.062;2024-03-08T04:47:44;100978.27;;;9.01;65.72
76808;BME280;65758;45.458;11.062;2024-03-08T04:50:11;100980.58;;;8.99;65.90
76808;BME280;65758;45.458;11.062;2024-03-08T04:52:39;100981.00;;;8.97;66.08
76808;BME280;65758;45.458;11.062;2024-03-08T04:55:05;100985.99;;;8.95;65.85
76808;BME280;65758;45.458;11.062;2024-03-08T04:57:33;100981.96;;;8.91;65.92
76808;BME280;65758;45.458;11.062;2024-03-08T05:00:00;100987.58;;;8.90;66.02
76808;BME280;65758;45.458;11.062;2024-03-08T05:02:27;100988.92;;;8.90;66.23
76808;BME280;65758;45.458;11.062;2024-03-08T05:09:14;100987.89;;;8.89;66.02
76808;BME280;65758;45.458;11.062;2024-03-08T05:11:43;100989.98;;;8.89;65.88
76808;BME280;65758;45.458;11.062;2024-03-08T05:14:12;100985.70;;;8.88;65.72
76808;BME280;65758;45.458;11.062;2024-03-08T05:21:00;100987.38;;;8.88;65.48
76808;BME280;65758;45.458;11.062;2024-03-08T05:27:51;100989.90;;;8.85;65.17
76808;BME280;65758;45.458;11.062;2024-03-08T05:30:18;100989.99;;;8.85;65.27
76808;BME280;65758;45.458;11.062;2024-03-08T05:37:06;100997.16;;;8.85;65.12
76808;BME280;65758;45.458;11.062;2024-03-08T05:43:48;100990.83;;;8.84;65.32
76808;BME280;65758;45.458;11.062;2024-03-08T05:46:18;100995.81;;;8.83;65.26
76808;BME280;65758;45.458;11.062;2024-03-08T05:48:45;101009.36;;;8.83;65.19
76808;BME280;65758;45.458;11.062;2024-03-08T05:51:11;101006.09;;;8.83;65.14
76808;BME280;65758;45.458;11.062;2024-03-08T05:57:59;101003.16;;;8.80;65.42
76808;BME280;65758;45.458;11.062;2024-03-08T06:00:27;101007.11;;;8.81;65.45
76808;BME280;65758;45.458;11.062;2024-03-08T06:02:54;101011.10;;;8.80;65.56
76808;BME280;65758;45.458;11.062;2024-03-08T06:05:22;101015.34;;;8.80;65.51
76808;BME280;65758;45.458;11.062;2024-03-08T06:07:51;101015.96;;;8.80;65.55
76808;BME280;65758;45.458;11.062;2024-03-08T06:10:20;101019.02;;;8.79;65.65
76808;BME280;65758;45.458;11.062;2024-03-08T06:12:47;101019.83;;;8.78;65.77
76808;BME280;65758;45.458;11.062;2024-03-08T06:15:14;101020.11;;;8.79;65.72
76808;BME280;65758;45.458;11.062;2024-03-08T06:17:42;101023.52;;;8.79;65.79
76808;BME280;65758;45.458;11.062;2024-03-08T06:20:09;101025.86;;;8.79;65.75
76808;BME280;65758;45.458;11.062;2024-03-08T06:22:40;101030.40;;;8.79;65.99
76808;BME280;65758;45.458;11.062;2024-03-08T06:25:08;101030.24;;;8.80;66.02
76808;BME280;65758;45.458;11.062;2024-03-08T06:27:35;101031.12;;;8.82;66.04
76808;BME280;65758;45.458;11.062;2024-03-08T06:30:02;101036.23;;;8.83;66.07
76808;BME280;65758;45.458;11.062;2024-03-08T06:32:31;101038.09;;;8.86;65.88
76808;BME280;65758;45.458;11.062;2024-03-08T06:35:03;101035.45;;;8.87;65.83
76808;BME280;65758;45.458;11.062;2024-03-08T06:37:33;101035.36;;;8.89;65.72
76808;BME280;65758;45.458;11.062;2024-03-08T06:40:01;101033.73;;;8.89;65.51
76808;BME280;65758;45.458;11.062;2024-03-08T06:42:30;101043.01;;;8.91;65.59
76808;BME280;65758;45.458;11.062;2024-03-08T06:45:02;101041.91;;;8.91;65.36
76808;BME280;65758;45.458;11.062;2024-03-08T06:47:32;101042.76;;;8.91;65.54
76808;BME280;65758;45.458;11.062;2024-03-08T06:50:00;101040.83;;;8.92;65.59
76808;BME280;65758;45.458;11.062;2024-03-08T06:52:27;101038.06;;;8.92;65.59
76808;BME280;65758;45.458;11.062;2024-03-08T06:54:54;101038.69;;;8.93;65.56
76808;BME280;65758;45.458;11.062;2024-03-08T06:57:21;101036.59;;;8.92;65.50
76808;BME280;65758;45.458;11.062;2024-03-08T06:59:50;101034.03;;;8.92;65.43
76808;BME280;65758;45.458;11.062;2024-03-08T07:02:19;101031.39;;;8.93;65.44
76808;BME280;65758;45.458;11.062;2024-03-08T07:04:46;101024.88;;;8.93;65.42
76808;BME280;65758;45.458;11.062;2024-03-08T07:07:12;101025.63;;;8.95;65.59
76808;BME280;65758;45.458;11.062;2024-03-08T07:09:39;101030.20;;;8.98;65.55
76808;BME280;65758;45.458;11.062;2024-03-08T07:12:09;101034.23;;;9.03;65.67
76808;BME280;65758;45.458;11.062;2024-03-08T07:14:37;101033.15;;;9.07;65.54
76808;BME280;65758;45.458;11.062;2024-03-08T07:17:07;101038.91;;;9.11;65.55
76808;BME280;65758;45.458;11.062;2024-03-08T07:19:38;101043.15;;;9.15;65.33
76808;BME280;65758;45.458;11.062;2024-03-08T07:22:05;101047.23;;;9.18;65.27
76808;BME280;65758;45.458;11.062;2024-03-08T07:24:35;101051.29;;;9.22;65.33
76808;BME280;65758;45.458;11.062;2024-03-08T07:27:25;101054.73;;;9.25;65.21
76808;BME280;65758;45.458;11.062;2024-03-08T07:29:52;101060.86;;;9.28;65.12
76808;BME280;65758;45.458;11.062;2024-03-08T07:32:34;101063.93;;;9.28;65.03
76808;BME280;65758;45.458;11.062;2024-03-08T07:35:02;101065.28;;;9.24;64.86
76808;BME280;65758;45.458;11.062;2024-03-08T07:37:30;101063.05;;;9.23;64.89
76808;BME280;65758;45.458;11.062;2024-03-08T07:39:58;101064.44;;;9.27;65.06
76808;BME280;65758;45.458;11.062;2024-03-08T07:42:25;101072.46;;;9.29;65.00
76808;BME280;65758;45.458;11.062;2024-03-08T07:44:52;101070.37;;;9.31;64.99
76808;BME280;65758;45.458;11.062;2024-03-08T07:47:19;101068.13;;;9.34;64.64
76808;BME280;65758;45.458;11.062;2024-03-08T07:49:50;101072.04;;;9.36;64.55
76808;BME280;65758;45.458;11.062;2024-03-08T07:52:17;101071.58;;;9.39;64.81
76808;BME280;65758;45.458;11.062;2024-03-08T07:54:44;101070.48;;;9.42;64.64
76808;BME280;65758;45.458;11.062;2024-03-08T08:01:43;101078.39;;;9.49;64.88
76808;BME280;65758;45.458;11.062;2024-03-08T08:04:10;101079.55;;;9.49;64.73
76808;BME280;65758;45.458;11.062;2024-03-08T08:06:39;101078.38;;;9.47;64.82
76808;BME280;65758;45.458;11.062;2024-03-08T08:09:08;101075.81;;;9.47;64.55
76808;BME280;65758;45.458;11.062;2024-03-08T08:11:41;101076.45;;;9.41;64.43
76808;BME280;65758;45.458;11.062;2024-03-08T08:14:10;101076.80;;;9.38;64.83
76808;BME280;65758;45.458;11.062;2024-03-08T08:16:36;101079.36;;;9.37;64.52
76808;BME280;65758;45.458;11.062;2024-03-08T08:19:04;101086.13;;;9.33;64.70
76808;BME280;65758;45.458;11.062;2024-03-08T08:21:34;101080.70;;;9.30;64.84
76808;BME280;65758;45.458;11.062;2024-03-08T08:24:03;101078.14;;;9.30;65.14
76808;BME280;65758;45.458;11.062;2024-03-08T08:26:30;101079.14;;;9.29;64.97
76808;BME280;65758;45.458;11.062;2024-03-08T08:29:02;101081.42;;;9.30;65.02
76808;BME280;65758;45.458;11.062;2024-03-08T08:31:29;101076.45;;;9.32;65.33
76808;BME280;65758;45.458;11.062;2024-03-08T08:33:55;101073.30;;;9.33;65.59
76808;BME280;65758;45.458;11.062;2024-03-08T08:36:25;101072.25;;;9.33;65.83
76808;BME280;65758;45.458;11.062;2024-03-08T08:38:52;101069.86;;;9.33;65.94
76808;BME280;65758;45.458;11.062;2024-03-08T08:41:23;101070.33;;;9.33;65.82
76808;BME280;65758;45.458;11.062;2024-03-08T08:43:50;101070.74;;;9.30;65.89
76808;BME280;65758;45.458;11.062;2024-03-08T08:46:33;101063.90;;;9.27;66.26
76808;BME280;65758;45.458;11.062;2024-03-08T08:49:08;101059.02;;;9.28;66.20
76808;BME280;65758;45.458;11.062;2024-03-08T08:51:37;101061.24;;;9.34;66.14
76808;BME280;65758;45.458;11.062;2024-03-08T08:54:05;101062.59;;;9.41;65.77
76808;BME280;65758;45.458;11.062;2024-03-08T08:56:39;101060.90;;;9.45;65.37
76808;BME280;65758;45.458;11.062;2024-03-08T08:59:06;101065.14;;;9.49;65.18
76808;BME280;65758;45.458;11.062;2024-03-08T09:01:33;101058.70;;;9.56;65.32
76808;BME280;65758;45.458;11.062;2024-03-08T09:04:00;101056.29;;;9.66;64.80
76808;BME280;65758;45.458;11.062;2024-03-08T09:06:27;101063.30;;;9.72;64.55
76808;BME280;65758;45.458;11.062;2024-03-08T09:08:54;101058.62;;;9.77;64.35
76808;BME280;65758;45.458;11.062;2024-03-08T09:11:21;101058.60;;;9.82;63.99
76808;BME280;65758;45.458;11.062;2024-03-08T09:13:48;101057.16;;;9.86;63.81
76808;BME280;65758;45.458;11.062;2024-03-08T09:16:15;101056.02;;;9.92;63.50
76808;BME280;65758;45.458;11.062;2024-03-08T09:18:42;101047.89;;;9.96;63.29
76808;BME280;65758;45.458;11.062;2024-03-08T09:21:09;101057.33;;;10.03;62.53
76808;BME280;65758;45.458;11.062;2024-03-08T09:23:36;101055.40;;;10.17;62.41
76808;BME280;65758;45.458;11.062;2024-03-08T09:26:03;101052.63;;;10.22;61.93
76808;BME280;65758;45.458;11.062;2024-03-08T09:28:36;101051.77;;;10.24;61.92
76808;BME280;65758;45.458;11.062;2024-03-08T09:31:03;101059.81;;;10.32;61.67
76808;BME280;65758;45.458;11.062;2024-03-08T09:33:34;101057.79;;;10.33;61.46
76808;BME280;65758;45.458;11.062;2024-03-08T09:36:02;101064.34;;;10.37;61.66
76808;BME280;65758;45.458;11.062;2024-03-08T09:38:30;101065.75;;;10.42;61.75
76808;BME280;65758;45.458;11.062;2024-03-08T09:40:57;101067.83;;;10.46;61.53
76808;BME280;65758;45.458;11.062;2024-03-08T09:43:24;101068.44;;;10.49;61.81
76808;BME280;65758;45.458;11.062;2024-03-08T09:45:52;101064.99;;;10.57;61.79
76808;BME280;65758;45.458;11.062;2024-03-08T09:48:19;101062.98;;;10.63;61.52
76808;BME280;65758;45.458;11.062;2024-03-08T09:50:46;101069.14;;;10.70;60.87
76808;BME280;65758;45.458;11.062;2024-03-08T09:53:15;101063.10;;;10.72;61.13
76808;BME280;65758;45.458;11.062;2024-03-08T09:55:43;101065.84;;;10.76;61.19
76808;BME280;65758;45.458;11.062;2024-03-08T09:58:15;101072.94;;;10.80;61.17
76808;BME280;65758;45.458;11.062;2024-03-08T10:01:01;101076.88;;;10.83;60.94
76808;BME280;65758;45.458;11.062;2024-03-08T10:03:31;101081.25;;;10.84;60.83
76808;BME280;65758;45.458;11.062;2024-03-08T10:05:59;101081.91;;;10.86;61.19
76808;BME280;65758;45.458;11.062;2024-03-08T10:08:29;101079.67;;;10.91;61.42
76808;BME280;65758;45.458;11.062;2024-03-08T10:10:56;101083.73;;;10.97;60.92
76808;BME280;65758;45.458;11.062;2024-03-08T10:13:27;101079.17;;;10.93;60.78
76808;BME280;65758;45.458;11.062;2024-03-08T10:15:54;101080.91;;;10.92;60.83
76808;BME280;65758;45.458;11.062;2024-03-08T10:18:21;101081.88;;;10.91;60.48
76808;BME280;65758;45.458;11.062;2024-03-08T10:21:06;101082.86;;;10.91;60.47
76808;BME280;65758;45.458;11.062;2024-03-08T10:23:34;101085.02;;;10.90;60.59
76808;BME280;65758;45.458;11.062;2024-03-08T10:26:16;101088.73;;;10.85;60.18
76808;BME280;65758;45.458;11.062;2024-03-08T10:28:46;101093.34;;;10.79;60.35
76808;BME280;65758;45.458;11.062;2024-03-08T10:31:17;101089.44;;;10.76;60.25
76808;BME280;65758;45.458;11.062;2024-03-08T10:33:46;101097.73;;;10.77;60.67
76808;BME280;65758;45.458;11.062;2024-03-08T10:36:14;101090.09;;;10.71;60.23
76808;BME280;65758;45.458;11.062;2024-03-08T10:38:43;101088.51;;;10.68;60.52
76808;BME280;65758;45.458;11.062;2024-03-08T10:41:14;101085.85;;;10.70;60.81
76808;BME280;65758;45.458;11.062;2024-03-08T10:49:25;101084.27;;;10.65;60.86
76808;BME280;65758;45.458;11.062;2024-03-08T10:51:57;101093.46;;;10.71;60.86
76808;BME280;65758;45.458;11.062;2024-03-08T10:54:26;101095.20;;;10.75;60.93
76808;BME280;65758;45.458;11.062;2024-03-08T10:56:53;101094.46;;;10.74;60.64
76808;BME280;65758;45.458;11.062;2024-03-08T10:59:22;101098.77;;;10.71;60.46
76808;BME280;65758;45.458;11.062;2024-03-08T11:01:50;101095.95;;;10.70;60.82
76808;BME280;65758;45.458;11.062;2024-03-08T11:04:17;101096.30;;;10.73;60.65
76808;BME280;65758;45.458;11.062;2024-03-08T11:06:51;101096.54;;;10.77;60.54
76808;BME280;65758;45.458;11.062;2024-03-08T11:09:31;101098.98;;;10.78;60.31
76808;BME280;65758;45.458;11.062;2024-03-08T11:12:21;101098.66;;;10.75;60.52
76808;BME280;65758;45.458;11.062;2024-03-08T11:14:50;101098.22;;;10.72;60.22
76808;BME280;65758;45.458;11.062;2024-03-08T11:17:22;101094.74;;;10.68;60.90
76808;BME280;65758;45.458;11.062;2024-03-08T11:19:55;101090.15;;;10.68;61.15
76808;BME280;65758;45.458;11.062;2024-03-08T11:22:29;101092.14;;;10.75;62.20
76808;BME280;65758;45.458;11.062;2024-03-08T11:25:04;101089.56;;;10.89;61.65
76808;BME280;65758;45.458;11.062;2024-03-08T11:27:37;101089.11;;;11.00;61.76
76808;BME280;65758;45.458;11.062;2024-03-08T11:30:05;101087.11;;;11.09;61.01
76808;BME280;65758;45.458;11.062;2024-03-08T11:32:45;101086.95;;;11.14;60.74
76808;BME280;65758;45.458;11.062;2024-03-08T11:35:21;101080.20;;;11.08;59.88
76808;BME280;65758;45.458;11.062;2024-03-08T11:37:50;101073.34;;;11.02;60.44
76808;BME280;65758;45.458;11.062;2024-03-08T11:40:18;101066.34;;;11.08;60.92
76808;BME280;65758;45.458;11.062;2024-03-08T11:42:48;101063.94;;;11.20;60.56
76808;BME280;65758;45.458;11.062;2024-03-08T11:45:16;101061.13;;;11.33;60.01
76808;BME280;65758;45.458;11.062;2024-03-08T11:47:45;101050.30;;;11.47;60.25
76808;BME280;65758;45.458;11.062;2024-03-08T11:50:17;101042.88;;;11.60;60.00
76808;BME280;65758;45.458;11.062;2024-03-08T11:52:46;101039.38;;;11.71;59.38
76808;BME280;65758;45.458;11.062;2024-03-08T11:55:13;101038.99;;;11.84;60.10
76808;BME280;65758;45.458;11.062;2024-03-08T11:57:41;101044.10;;;12.08;58.97
76808;BME280;65758;45.458;11.062;2024-03-08T12:00:19;101032.23;;;12.32;58.30
76808;BME280;65758;45.458;11.062;2024-03-08T12:03:03;101031.37;;;12.56;58.15
76808;BME280;65758;45.458;11.062;2024-03-08T12:05:31;101022.15;;;12.74;57.22
76808;BME280;65758;45.458;11.062;2024-03-08T12:08:01;101022.53;;;12.82;56.91
76808;BME280;65758;45.458;11.062;2024-03-08T12:10:29;101025.02;;;12.93;57.03
76808;BME280;65758;45.458;11.062;2024-03-08T12:12:58;101017.27;;;13.04;56.37
76808;BME280;65758;45.458;11.062;2024-03-08T12:15:32;101023.66;;;12.96;56.37
76808;BME280;65758;45.458;11.062;2024-03-08T12:18:01;101020.15;;;12.88;56.29
76808;BME280;65758;45.458;11.062;2024-03-08T12:20:28;101019.63;;;12.87;56.54
76808;BME280;65758;45.458;11.062;2024-03-08T12:22:59;101015.86;;;12.90;56.43
76808;BME280;65758;45.458;11.062;2024-03-08T12:25:31;101016.89;;;13.00;56.32
76808;BME280;65758;45.458;11.062;2024-03-08T12:32:13;101009.83;;;13.36;55.07
76808;BME280;65758;45.458;11.062;2024-03-08T12:34:42;101005.73;;;13.36;55.24
76808;BME280;65758;45.458;11.062;2024-03-08T12:37:10;101006.78;;;13.29;55.23
76808;BME280;65758;45.458;11.062;2024-03-08T12:39:41;101006.21;;;13.05;54.33
76808;BME280;65758;45.458;11.062;2024-03-08T12:42:13;101006.84;;;12.83;55.34
76808;BME280;65758;45.458;11.062;2024-03-08T12:44:41;101009.13;;;12.72;55.57
76808;BME280;65758;45.458;11.062;2024-03-08T12:47:12;101010.21;;;12.59;55.69
76808;BME280;65758;45.458;11.062;2024-03-08T12:49:40;101001.97;;;12.44;56.01
76808;BME280;65758;45.458;11.062;2024-03-08T12:56:35;101002.84;;;12.04;55.58
76808;BME280;65758;45.458;11.062;2024-03-08T13:03:24;101001.30;;;11.83;57.11
76808;BME280;65758;45.458;11.062;2024-03-08T13:05:51;100996.95;;;11.81;56.69
76808;BME280;65758;45.458;11.062;2024-03-08T13:08:18;100991.21;;;11.77;57.39
76808;BME280;65758;45.458;11.062;2024-03-08T13:10:45;100994.19;;;11.80;56.97
76808;BME280;65758;45.458;11.062;2024-03-08T13:13:12;100990.17;;;11.77;56.90
76808;BME280;65758;45.458;11.062;2024-03-08T13:15:44;100992.99;;;11.74;56.95
76808;BME280;65758;45.458;11.062;2024-03-08T13:18:11;100986.14;;;11.73;57.57
76808;BME280;65758;45.458;11.062;2024-03-08T13:20:38;100981.50;;;11.76;57.05
76808;BME280;65758;45.458;11.062;2024-03-08T13:23:13;100976.02;;;11.76;57.13
76808;BME280;65758;45.458;11.062;2024-03-08T13:25:40;100974.55;;;11.76;57.41
76808;BME280;65758;45.458;11.062;2024-03-08T13:28:08;100973.64;;;11.78;57.59
76808;BME280;65758;45.458;11.062;2024-03-08T13:30:36;100970.39;;;11.84;57.30
76808;BME280;65758;45.458;11.062;2024-03-08T13:33:03;100965.81;;;11.86;57.20
76808;BME280;65758;45.458;11.062;2024-03-08T13:39:51;100954.77;;;11.93;57.79
76808;BME280;65758;45.458;11.062;2024-03-08T13:42:19;100953.87;;;12.03;57.50
76808;BME280;65758;45.458;11.062;2024-03-08T13:44:46;100953.51;;;12.05;57.04
76808;BME280;65758;45.458;11.062;2024-03-08T13:47:17;100956.06;;;12.03;56.90
76808;BME280;65758;45.458;11.062;2024-03-08T13:49:44;100953.69;;;12.00;57.59
76808;BME280;65758;45.458;11.062;2024-03-08T13:52:11;100952.45;;;12.03;57.16
76808;BME280;65758;45.458;11.062;2024-03-08T13:54:41;100952.32;;;12.08;57.12
76808;BME280;65758;45.458;11.062;2024-03-08T13:57:08;100945.80;;;12.10;57.04
76808;BME280;65758;45.458;11.062;2024-03-08T14:04:02;100940.39;;;12.04;57.10
76808;BME280;65758;45.458;11.062;2024-03-08T14:06:30;100938.33;;;12.10;57.57
76808;BME280;65758;45.458;11.062;2024-03-08T14:08:57;100936.04;;;12.16;57.29
76808;BME280;65758;45.458;11.062;2024-03-08T14:11:24;100929.26;;;12.13;56.88
76808;BME280;65758;45.458;11.062;2024-03-08T14:13:51;100925.35;;;12.09;56.60
76808;BME280;65758;45.458;11.062;2024-03-08T14:16:19;100927.16;;;11.97;56.65
76808;BME280;65758;45.458;11.062;2024-03-08T14:18:46;100928.48;;;11.86;57.00
76808;BME280;65758;45.458;11.062;2024-03-08T14:21:13;100922.19;;;11.72;57.21
76808;BME280;65758;45.458;11.062;2024-03-08T14:23:43;100919.88;;;11.61;57.09
76808;BME280;65758;45.458;11.062;2024-03-08T14:26:10;100914.77;;;11.53;57.60
76808;BME280;65758;45.458;11.062;2024-03-08T14:28:38;100914.92;;;11.47;57.73
76808;BME280;65758;45.458;11.062;2024-03-08T14:31:06;100903.83;;;11.44;58.15
76808;BME280;65758;45.458;11.062;2024-03-08T14:33:38;100899.23;;;11.44;58.10
76808;BME280;65758;45.458;11.062;2024-03-08T14:36:05;100898.44;;;11.44;57.96
76808;BME280;65758;45.458;11.062;2024-03-08T14:38:33;100901.23;;;11.42;58.21
76808;BME280;65758;45.458;11.062;2024-03-08T14:41:02;100894.91;;;11.49;58.71
76808;BME280;65758;45.458;11.062;2024-03-08T14:43:31;100893.98;;;11.53;57.74
76808;BME280;65758;45.458;11.062;2024-03-08T14:45:59;100894.27;;;11.47;58.07
76808;BME280;65758;45.458;11.062;2024-03-08T14:48:26;100885.83;;;11.47;58.21
76808;BME280;65758;45.458;11.062;2024-03-08T14:50:53;100888.58;;;11.50;57.85
76808;BME280;65758;45.458;11.062;2024-03-08T14:53:19;100884.19;;;11.47;58.08
76808;BME280;65758;45.458;11.062;2024-03-08T14:55:46;100890.08;;;11.45;57.66
76808;BME280;65758;45.458;11.062;2024-03-08T14:58:14;100883.18;;;11.39;57.75
76808;BME280;65758;45.458;11.062;2024-03-08T15:00:42;100875.89;;;11.43;58.15
76808;BME280;65758;45.458;11.062;2024-03-08T15:03:10;100876.32;;;11.46;58.23
76808;BME280;65758;45.458;11.062;2024-03-08T15:09:55;100869.86;;;11.57;58.46
76808;BME280;65758;45.458;11.062;2024-03-08T15:12:23;100866.38;;;11.60;58.28
76808;BME280;65758;45.458;11.062;2024-03-08T15:14:53;100868.43;;;11.58;57.97
76808;BME280;65758;45.458;11.062;2024-03-08T15:17:22;100868.34;;;11.61;58.49